createdAt,value
2022-09-22T00:03:14.779Z,10.18
2022-09-22T00:07:16.187Z,9.96
2022-09-22T00:11:20.526Z,10.03
2022-09-22T00:15:21.982Z,10.10
2022-09-22T00:19:26.564Z,10.12
2022-09-22T00:23:29.039Z,9.94
2022-09-22T00:27:30.451Z,9.81
2022-09-22T00:31:31.989Z,9.47
2022-09-22T00:35:33.422Z,9.66
2022-09-22T00:39:35.107Z,9.60
2022-09-22T00:43:38.565Z,9.51
2022-09-22T00:47:44.667Z,9.46
2022-09-22T00:51:46.098Z,9.24
2022-09-22T00:55:53.607Z,8.80
2022-09-22T00:59:55.507Z,8.90
2022-09-22T01:03:57.423Z,8.99
2022-09-22T01:07:59.710Z,9.03
2022-09-22T01:12:02.845Z,9.00
2022-09-22T01:16:20.892Z,8.91
2022-09-22T01:21:02.398Z,8.77
2022-09-22T01:25:15.073Z,8.61
2022-09-22T01:29:35.058Z,8.47
2022-09-22T01:33:42.723Z,8.21
2022-09-22T01:38:09.641Z,8.29
2022-09-22T01:42:19.561Z,8.17
2022-09-22T01:46:42.838Z,7.94
2022-09-22T01:50:53.152Z,7.92
2022-09-22T01:55:25.760Z,8.13
2022-09-22T01:59:30.656Z,8.00
2022-09-22T02:03:41.546Z,7.87
2022-09-22T02:07:48.718Z,7.96
2022-09-22T02:11:50.233Z,8.09
2022-09-22T02:16:01.292Z,8.14
2022-09-22T02:20:05.875Z,7.89
2022-09-22T02:24:07.980Z,8.12
2022-09-22T02:28:12.774Z,8.17
2022-09-22T02:32:17.067Z,8.25
2022-09-22T02:36:37.573Z,8.33
2022-09-22T02:40:57.204Z,8.43
2022-09-22T02:45:04.709Z,8.40
2022-09-22T02:49:11.793Z,8.40
2022-09-22T02:53:17.069Z,8.32
2022-09-22T02:57:18.485Z,8.36
2022-09-22T03:01:19.919Z,8.42
2022-09-22T03:05:21.286Z,8.47
2022-09-22T03:09:22.654Z,8.33
2022-09-22T03:13:24.128Z,8.45
2022-09-22T03:17:25.517Z,8.21
2022-09-22T03:21:26.947Z,8.29
2022-09-22T03:25:28.364Z,8.36
2022-09-22T03:29:29.800Z,8.31
2022-09-22T03:33:31.237Z,8.22
2022-09-22T03:37:34.414Z,8.30
2022-09-22T03:41:35.851Z,8.40
2022-09-22T03:45:40.232Z,8.58
2022-09-22T03:49:41.726Z,8.33
2022-09-22T03:53:43.099Z,8.42
2022-09-22T03:57:44.524Z,8.35
2022-09-22T04:01:45.964Z,8.25
2022-09-22T04:05:51.356Z,8.06
2022-09-22T04:09:53.045Z,7.97
2022-09-22T04:13:54.485Z,7.80
2022-09-22T04:17:57.420Z,7.80
2022-09-22T04:21:58.803Z,7.84
2022-09-22T04:26:01.429Z,7.74
2022-09-22T04:30:03.088Z,7.47
2022-09-22T04:34:07.596Z,7.40
2022-09-22T04:38:10.610Z,7.37
2022-09-22T04:42:12.044Z,7.36
2022-09-22T04:46:17.926Z,7.24
2022-09-22T04:50:22.611Z,7.15
2022-09-22T04:54:24.013Z,6.95
2022-09-22T04:58:25.385Z,6.73
2022-09-22T05:02:26.747Z,6.75
2022-09-22T05:06:28.200Z,6.69
2022-09-22T05:10:32.203Z,6.82
2022-09-22T05:14:35.121Z,6.82
2022-09-22T05:18:36.834Z,6.82
2022-09-22T05:22:40.147Z,6.84
2022-09-22T05:26:41.581Z,6.60
2022-09-22T05:30:43.752Z,6.73
2022-09-22T05:34:45.152Z,6.78
2022-09-22T05:38:46.501Z,6.75
2022-09-22T05:42:49.763Z,6.85
2022-09-22T05:46:51.210Z,6.84
2022-09-22T05:50:52.573Z,6.91
2022-09-22T05:54:54.015Z,7.04
2022-09-22T05:58:55.396Z,7.10
2022-09-22T06:02:56.966Z,7.14
2022-09-22T06:06:59.579Z,7.36
2022-09-22T06:11:01.055Z,7.51
2022-09-22T06:15:02.489Z,7.67
2022-09-22T06:19:04.156Z,7.83
2022-09-22T06:23:05.572Z,7.99
2022-09-22T06:27:06.948Z,8.23
2022-09-22T06:31:08.325Z,8.40
2022-09-22T06:35:10.150Z,8.59
2022-09-22T06:39:13.016Z,8.76
2022-09-22T06:43:20.749Z,8.95
2022-09-22T06:47:22.208Z,9.23
2022-09-22T06:51:26.640Z,9.34
2022-09-22T06:55:29.465Z,9.48
2022-09-22T06:59:30.834Z,9.72
2022-09-22T07:03:33.133Z,9.93
2022-09-22T07:07:34.695Z,10.11
2022-09-22T07:11:39.856Z,10.25
2022-09-22T07:15:41.897Z,10.38
2022-09-22T07:19:43.486Z,10.54
2022-09-22T07:23:45.005Z,10.52
2022-09-22T07:27:46.417Z,10.74
2022-09-22T07:31:47.845Z,10.83
2022-09-22T07:35:49.531Z,10.95
2022-09-22T07:39:50.907Z,11.29
2022-09-22T07:43:54.040Z,11.37
2022-09-22T07:48:14.068Z,11.59
2022-09-22T07:52:16.037Z,11.90
2022-09-22T07:56:21.117Z,12.03
2022-09-22T08:00:24.466Z,12.47
2022-09-22T08:04:26.805Z,12.28
2022-09-22T08:08:30.120Z,12.69
2022-09-22T08:12:32.323Z,12.93
2022-09-22T08:16:39.896Z,13.16
2022-09-22T08:20:45.058Z,13.18
2022-09-22T08:24:46.663Z,13.36
2022-09-22T08:28:52.785Z,13.77
2022-09-22T08:32:54.288Z,13.89
2022-09-22T08:36:56.087Z,14.24
2022-09-22T08:41:19.408Z,14.07
2022-09-22T08:45:38.467Z,14.25
2022-09-22T08:50:05.710Z,14.71
2022-09-22T08:54:08.617Z,14.72
2022-09-22T08:58:38.902Z,15.07
2022-09-22T09:02:49.221Z,15.74
2022-09-22T09:07:15.955Z,16.05
2022-09-22T09:11:40.853Z,15.26
2022-09-22T09:16:01.802Z,14.91
2022-09-22T09:20:17.555Z,15.10
2022-09-22T09:29:05.845Z,15.75
2022-09-22T09:33:29.919Z,15.71
2022-09-22T09:37:32.254Z,15.67
2022-09-22T09:41:35.430Z,15.84
2022-09-22T09:45:41.349Z,16.57
2022-09-22T09:49:43.958Z,16.49
2022-09-22T09:53:47.552Z,17.06
2022-09-22T09:58:04.475Z,17.20
2022-09-22T10:02:14.978Z,16.99
2022-09-22T10:06:24.488Z,16.38
2022-09-22T10:10:29.004Z,16.13
2022-09-22T10:14:33.821Z,16.85
2022-09-22T10:18:40.436Z,16.84
2022-09-22T10:22:42.643Z,16.30
2022-09-22T10:26:55.926Z,16.24
2022-09-22T10:31:00.111Z,15.93
2022-09-22T10:35:29.255Z,15.83
2022-09-22T10:39:35.644Z,15.03
2022-09-22T10:43:55.373Z,15.48
2022-09-22T10:47:57.917Z,15.95
2022-09-22T10:52:23.854Z,15.64
2022-09-22T10:56:39.393Z,15.72
2022-09-22T11:00:42.345Z,15.69
2022-09-22T11:05:42.505Z,15.42
2022-09-22T11:10:17.009Z,15.34
2022-09-22T11:14:27.655Z,16.19
2022-09-22T11:18:39.824Z,16.16
2022-09-22T11:22:56.651Z,15.46
2022-09-22T11:27:01.332Z,15.34
2022-09-22T11:31:03.040Z,14.97
2022-09-22T11:35:22.783Z,14.96
2022-09-22T11:40:00.118Z,15.25
2022-09-22T11:44:04.510Z,15.09
2022-09-22T11:48:20.427Z,15.23
2022-09-22T11:52:45.614Z,15.06
2022-09-22T11:56:51.720Z,15.26
2022-09-22T12:00:59.905Z,14.94
2022-09-22T12:05:10.791Z,16.09
2022-09-22T12:09:23.959Z,16.18
2022-09-22T12:13:28.688Z,16.09
2022-09-22T12:17:39.361Z,17.09
2022-09-22T12:21:58.017Z,17.69
2022-09-22T12:26:07.197Z,18.21
2022-09-22T12:30:21.686Z,17.14
2022-09-22T12:34:29.407Z,18.56
2022-09-22T12:38:31.665Z,19.50
2022-09-22T12:42:35.758Z,19.30
2022-09-22T12:46:43.182Z,19.84
2022-09-22T12:50:45.850Z,18.33
2022-09-22T12:54:47.795Z,17.82
2022-09-22T12:58:49.376Z,17.60
2022-09-22T13:02:51.056Z,16.69
2022-09-22T13:06:55.088Z,16.05
2022-09-22T13:11:05.133Z,16.07
2022-09-22T13:15:06.501Z,15.79
2022-09-22T13:19:10.204Z,15.68
2022-09-22T13:23:12.978Z,15.53
2022-09-22T13:27:14.674Z,15.30
2022-09-22T13:31:17.742Z,15.59
2022-09-22T13:35:31.257Z,15.62
2022-09-22T13:39:37.970Z,15.41
2022-09-22T13:43:43.424Z,15.01
2022-09-22T13:47:46.953Z,14.92
2022-09-22T13:51:54.923Z,15.29
2022-09-22T13:55:57.256Z,14.94
2022-09-22T14:00:02.047Z,14.86
2022-09-22T14:04:04.085Z,14.52
2022-09-22T14:08:12.847Z,14.84
2022-09-22T14:12:17.322Z,14.45
2022-09-22T14:16:27.818Z,14.53
2022-09-22T14:20:29.258Z,15.04
2022-09-22T14:24:37.668Z,14.91
2022-09-22T14:28:41.370Z,14.94
2022-09-22T14:32:49.439Z,14.64
2022-09-22T14:36:52.521Z,15.51
2022-09-22T14:40:55.877Z,15.51
2022-09-22T14:45:09.531Z,15.00
2022-09-22T14:49:36.413Z,15.11
2022-09-22T14:53:45.719Z,15.42
2022-09-22T14:57:49.488Z,15.33
2022-09-22T15:02:14.335Z,15.52
2022-09-22T15:06:15.756Z,15.15
2022-09-22T15:10:27.885Z,15.10
2022-09-22T15:14:41.786Z,14.77
2022-09-22T15:18:43.132Z,14.94
2022-09-22T15:22:46.274Z,14.81
2022-09-22T15:26:47.825Z,14.90
2022-09-22T15:30:51.256Z,14.81
2022-09-22T15:34:54.974Z,14.90
2022-09-22T15:39:21.610Z,15.08
2022-09-22T15:43:29.255Z,14.49
2022-09-22T15:47:30.643Z,14.49
2022-09-22T15:51:32.868Z,14.73
2022-09-22T15:55:34.247Z,14.41
2022-09-22T15:59:36.872Z,14.22
2022-09-22T16:03:41.219Z,14.50
2022-09-22T16:07:46.486Z,14.53
2022-09-22T16:11:48.508Z,14.54
2022-09-22T16:15:50.405Z,14.55
2022-09-22T16:19:51.870Z,14.09
2022-09-22T16:23:54.854Z,14.04
2022-09-22T16:27:56.710Z,14.35
2022-09-22T16:31:58.674Z,13.52
2022-09-22T16:36:00.132Z,13.68
2022-09-22T16:40:01.960Z,13.46
2022-09-22T16:44:04.947Z,13.47
2022-09-22T16:48:07.106Z,13.31
2022-09-22T16:52:10.564Z,13.02
2022-09-22T16:56:11.942Z,12.93
2022-09-22T17:00:13.875Z,12.87
2022-09-22T17:04:18.483Z,12.72
2022-09-22T17:08:20.983Z,12.32
2022-09-22T17:12:23.125Z,12.18
2022-09-22T17:16:33.573Z,12.17
2022-09-22T17:20:39.067Z,11.88
2022-09-22T17:24:40.478Z,11.83
2022-09-22T17:28:41.947Z,11.67
2022-09-22T17:32:43.362Z,11.28
2022-09-22T17:36:45.185Z,11.10
2022-09-22T17:40:46.843Z,10.97
2022-09-22T17:44:48.441Z,10.95
2022-09-22T17:49:08.480Z,10.68
2022-09-22T17:53:28.193Z,10.73
2022-09-22T17:57:31.792Z,10.50
2022-09-22T18:01:33.184Z,10.46
2022-09-22T18:05:38.589Z,10.20
2022-09-22T18:09:43.653Z,10.29
2022-09-22T18:13:45.237Z,10.20
2022-09-22T18:17:46.669Z,10.08
2022-09-22T18:21:48.101Z,10.14
2022-09-22T18:25:51.174Z,10.13
2022-09-22T18:29:58.419Z,9.81
2022-09-22T18:33:59.788Z,9.84
2022-09-22T18:38:01.197Z,9.27
2022-09-22T18:42:02.645Z,9.58
2022-09-22T18:46:07.206Z,9.67
2022-09-22T18:50:09.746Z,9.58
2022-09-22T18:54:15.287Z,9.31
2022-09-22T18:58:17.860Z,9.31
2022-09-22T19:02:22.981Z,9.08
2022-09-22T19:06:24.783Z,9.19
2022-09-22T19:10:26.290Z,9.17
2022-09-22T19:14:28.277Z,9.01
2022-09-22T19:18:29.680Z,8.94
2022-09-22T19:22:31.160Z,8.87
2022-09-22T19:26:32.719Z,8.69
2022-09-22T19:30:34.694Z,8.61
2022-09-22T19:34:36.251Z,8.57
2022-09-22T19:38:37.620Z,8.51
2022-09-22T19:42:40.418Z,8.47
2022-09-22T19:46:43.353Z,8.22
2022-09-22T19:50:46.868Z,8.33
2022-09-22T19:54:48.411Z,8.30
2022-09-22T19:58:52.044Z,8.27
2022-09-22T20:02:59.789Z,8.24
2022-09-22T20:07:01.657Z,8.16
2022-09-22T20:11:23.034Z,8.02
2022-09-22T20:15:25.579Z,7.84
2022-09-22T20:19:28.971Z,7.58
2022-09-22T20:23:30.442Z,7.31
2022-09-22T20:27:34.405Z,7.55
2022-09-22T20:31:36.318Z,7.64
2022-09-22T20:35:38.149Z,7.64
2022-09-22T20:39:39.738Z,7.61
2022-09-22T20:43:41.181Z,7.73
2022-09-22T20:47:42.612Z,7.64
2022-09-22T20:51:44.085Z,7.46
2022-09-22T20:55:58.503Z,7.53
2022-09-22T21:00:01.135Z,7.36
2022-09-22T21:04:02.560Z,7.35
2022-09-22T21:08:22.663Z,7.36
2022-09-22T21:12:30.685Z,7.40
2022-09-22T21:16:35.506Z,7.47
2022-09-22T21:20:39.568Z,7.25
2022-09-22T21:24:45.638Z,7.17
2022-09-22T21:28:50.041Z,7.23
2022-09-22T21:32:51.480Z,7.12
2022-09-22T21:36:52.915Z,7.17
2022-09-22T21:40:57.716Z,7.12
2022-09-22T21:44:59.326Z,7.11
2022-09-22T21:49:03.209Z,7.07
2022-09-22T21:53:04.587Z,6.95
2022-09-22T21:57:06.027Z,6.90
2022-09-22T22:01:13.468Z,6.83
2022-09-22T22:05:15.196Z,6.77
2022-09-22T22:09:21.556Z,6.69
2022-09-22T22:13:22.922Z,6.65
2022-09-22T22:17:24.285Z,6.54
2022-09-22T22:21:28.878Z,6.63
2022-09-22T22:25:30.251Z,6.20
2022-09-22T22:29:34.558Z,6.24
2022-09-22T22:33:37.831Z,6.19
2022-09-22T22:37:39.879Z,6.04
2022-09-22T22:41:41.527Z,6.12
2022-09-22T22:45:47.642Z,6.27
2022-09-22T22:49:49.059Z,6.40
2022-09-22T22:53:51.883Z,6.29
2022-09-22T22:57:56.234Z,6.28
2022-09-22T23:01:57.639Z,6.23
2022-09-22T23:06:00.124Z,6.18
2022-09-22T23:10:07.239Z,6.24
2022-09-22T23:14:11.226Z,6.18
2022-09-22T23:18:13.971Z,6.08
2022-09-22T23:22:17.840Z,6.02
2022-09-22T23:26:19.259Z,5.85
2022-09-22T23:30:20.652Z,5.97
2022-09-22T23:34:22.111Z,6.06
2022-09-22T23:38:26.375Z,5.84
2022-09-22T23:42:27.853Z,5.88
2022-09-22T23:46:29.339Z,6.02
2022-09-22T23:50:30.914Z,5.83
2022-09-22T23:54:32.781Z,5.83
2022-09-22T23:58:35.202Z,5.84
